Time;durP1;ratioP1;P1;durP2;ratioP2;P2;SDS_P1;SDS_P2;PMS_P1;PMS_P2;Temp;Humidity;BMP_temperature;BMP_pressure;BME280_temperature;BME280_humidity;BME280_pressure;Samples;Min_cycle;Max_cycle;Signal;HPM_P1;HPM_P2
2023/02/26 00:02:04;;;;;;;;;15.00;14.00;25.00;32.90;;;;;;109771;1257;54832;-61
2023/02/26 00:04:30;;;;;;;;;13.67;13.00;24.90;32.40;;;;;;109824;1253;53790;-60
2023/02/26 00:06:56;;;;;;;;;14.00;13.00;24.90;33.00;;;;;;109813;1258;49226;-61
2023/02/26 00:09:23;;;;;;;;;13.00;11.00;24.80;32.50;;;;;;109767;1257;49737;-60
2023/02/26 00:11:49;;;;;;;;;13.00;12.00;24.70;32.40;;;;;;109901;1257;44825;-60
2023/02/26 00:14:16;;;;;;;;;12.00;11.00;24.70;33.10;;;;;;109832;1256;54531;-61
2023/02/26 00:16:47;;;;;;;;;13.00;12.00;24.60;32.50;;;;;;109748;1253;54792;-61
2023/02/26 00:19:13;;;;;;;;;13.00;12.00;24.60;32.60;;;;;;109873;1254;49333;-61
2023/02/26 00:21:40;;;;;;;;;14.00;12.00;24.50;32.80;;;;;;109824;1254;50166;-61
2023/02/26 00:24:07;;;;;;;;;12.50;11.00;24.40;32.60;;;;;;109856;1253;46045;-61
2023/02/26 00:26:34;;;;;;;;;11.75;10.75;24.40;32.60;;;;;;109823;1254;54654;-61
2023/02/26 00:29:01;;;;;;;;;15.00;13.00;24.40;32.70;;;;;;110019;1254;53996;-61
2023/02/26 00:31:28;;;;;;;;;17.00;13.00;24.40;32.80;;;;;;110258;1250;49866;-62
2023/02/26 00:33:56;;;;;;;;;13.00;11.00;24.30;32.70;;;;;;110231;1254;50178;-60
2023/02/26 00:36:31;;;;;;;;;12.00;10.67;24.30;32.70;;;;;;110155;1254;44846;-61
2023/02/26 00:39:03;;;;;;;;;10.00;9.00;24.20;32.80;;;;;;110103;1253;54740;-60
2023/02/26 00:41:30;;;;;;;;;12.00;11.00;24.20;32.90;;;;;;110113;1253;54253;-60
2023/02/26 00:43:56;;;;;;;;;13.00;12.00;24.10;32.70;;;;;;110121;1253;49593;-62
2023/02/26 00:46:38;;;;;;;;;12.00;11.00;24.10;32.70;;;;;;110143;1249;49000;-61
2023/02/26 00:49:33;;;;;;;;;15.00;12.00;24.00;32.90;;;;;;110138;1254;45031;-61
2023/02/26 00:52:05;;;;;;;;;13.50;12.00;24.00;33.00;;;;;;110219;1253;54952;-62
2023/02/26 00:54:31;;;;;;;;;14.67;10.00;24.00;32.80;;;;;;110197;1253;53958;-61
2023/02/26 00:56:58;;;;;;;;;13.00;12.00;24.00;32.80;;;;;;110158;1249;49018;-61
2023/02/26 00:59:25;;;;;;;;;11.00;10.00;23.90;32.70;;;;;;110105;1249;48926;-61
2023/02/26 01:01:52;;;;;;;;;11.00;8.00;23.90;32.90;;;;;;110173;1249;44393;-60
2023/02/26 01:04:21;;;;;;;;;12.33;11.00;23.80;32.80;;;;;;110175;1253;54492;-60
2023/02/26 01:06:50;;;;;;;;;11.00;10.00;23.80;32.80;;;;;;110148;1249;53990;-60
2023/02/26 01:09:37;;;;;;;;;12.67;11.67;23.80;32.80;;;;;;110182;1250;49412;-61
2023/02/26 01:12:10;;;;;;;;;12.00;10.00;23.80;32.90;;;;;;110211;1249;49682;-64
2023/02/26 01:14:36;;;;;;;;;9.50;8.00;23.70;33.00;;;;;;110185;1249;44814;-61
2023/02/26 01:17:10;;;;;;;;;13.00;12.00;23.70;32.80;;;;;;110187;1253;54883;-63
2023/02/26 01:19:53;;;;;;;;;16.50;12.50;23.70;32.80;;;;;;110276;1253;53526;-61
2023/02/26 01:22:29;;;;;;;;;14.00;11.00;23.60;32.80;;;;;;110252;1253;49686;-61
2023/02/26 01:25:01;;;;;;;;;10.00;9.00;23.60;32.90;;;;;;110190;1253;49724;-61
2023/02/26 01:27:28;;;;;;;;;12.67;10.67;23.60;32.80;;;;;;110206;1253;45861;-61
2023/02/26 01:29:54;;;;;;;;;13.00;11.00;23.60;32.90;;;;;;110192;1253;55393;-61
2023/02/26 01:32:26;;;;;;;;;13.00;12.00;23.50;32.80;;;;;;110213;1250;55675;-63
2023/02/26 01:35:04;;;;;;;;;14.00;12.00;23.50;32.90;;;;;;110335;1249;49718;-63
2023/02/26 01:37:57;;;;;;;;;12.00;11.00;23.50;32.90;;;;;;110281;1249;50394;-61
2023/02/26 01:40:38;;;;;;;;;12.00;11.00;23.50;32.90;;;;;;110279;1253;45289;-64
2023/02/26 01:43:15;;;;;;;;;13.00;11.00;23.40;32.80;;;;;;110298;1253;54604;-61
2023/02/26 01:45:59;;;;;;;;;13.67;12.00;23.50;32.90;;;;;;110313;1249;53665;-64
2023/02/26 01:48:38;;;;;;;;;12.50;11.50;23.40;32.90;;;;;;110274;1249;49218;-62
2023/02/26 01:51:04;;;;;;;;;16.50;14.00;23.40;33.20;;;;;;110018;1256;49508;-61
2023/02/26 01:53:31;;;;;;;;;13.50;11.00;23.40;33.00;;;;;;110574;1253;44410;-61
2023/02/26 01:56:02;;;;;;;;;13.00;11.00;23.40;32.90;;;;;;110172;1250;54379;-61
2023/02/26 01:58:32;;;;;;;;;13.00;11.00;23.30;33.20;;;;;;110013;1252;54161;-60
2023/02/26 02:00:59;;;;;;;;;14.00;11.00;23.30;32.90;;;;;;110169;1249;49868;-61
2023/02/26 02:03:27;;;;;;;;;13.00;12.00;23.20;32.90;;;;;;110223;1250;49873;-60
2023/02/26 02:06:04;;;;;;;;;14.00;10.67;23.20;33.10;;;;;;110038;1251;44403;-61
2023/02/26 02:08:34;;;;;;;;;14.00;11.00;23.20;33.10;;;;;;109998;1251;54956;-60
2023/02/26 02:11:02;;;;;;;;;14.00;12.00;23.20;33.00;;;;;;110042;1252;53668;-61
2023/02/26 02:14:10;;;;;;;;;13.00;12.00;23.10;32.90;;;;;;110072;1251;49999;-61
2023/02/26 02:16:42;;;;;;;;;15.00;13.00;23.10;32.90;;;;;;109839;1249;49701;-61
2023/02/26 02:19:27;;;;;;;;;14.00;12.00;23.10;32.90;;;;;;110207;1249;44993;-61
2023/02/26 02:22:17;;;;;;;;;11.00;9.00;23.10;33.00;;;;;;110209;1253;54512;-60
2023/02/26 02:24:59;;;;;;;;;13.00;12.00;23.10;33.00;;;;;;110186;1249;53401;-62
2023/02/26 02:27:43;;;;;;;;;13.00;12.00;23.10;33.00;;;;;;110302;1253;49345;-62
2023/02/26 02:30:25;;;;;;;;;13.00;10.00;23.00;33.10;;;;;;110229;1249;49240;-61
2023/02/26 02:33:01;;;;;;;;;15.00;12.00;23.00;33.20;;;;;;110220;1249;44866;-61
2023/02/26 02:35:40;;;;;;;;;10.00;9.00;22.90;33.10;;;;;;110250;1253;55730;-61
2023/02/26 02:38:12;;;;;;;;;10.00;9.00;22.90;33.00;;;;;;110115;1254;54234;-61
2023/02/26 02:40:44;;;;;;;;;14.00;11.00;22.90;33.00;;;;;;110114;1249;48946;-61
2023/02/26 02:43:15;;;;;;;;;13.00;10.00;22.80;33.20;;;;;;110126;1254;50107;-61
2023/02/26 02:45:55;;;;;;;;;13.00;11.33;22.80;33.30;;;;;;110246;1249;46495;-60
2023/02/26 02:48:31;;;;;;;;;12.33;11.00;22.80;33.10;;;;;;110209;1253;55111;-60
2023/02/26 02:51:05;;;;;;;;;16.00;12.67;22.80;33.10;;;;;;110128;1253;54165;-61
2023/02/26 02:53:43;;;;;;;;;15.50;12.00;22.80;33.10;;;;;;110162;1251;49661;-61
2023/02/26 02:56:23;;;;;;;;;14.00;11.00;22.80;33.10;;;;;;110215;1249;50171;-60
2023/02/26 02:58:55;;;;;;;;;14.50;11.00;22.70;33.20;;;;;;110081;1251;45133;-62
2023/02/26 03:01:25;;;;;;;;;12.00;10.00;22.70;33.10;;;;;;110165;1253;55323;-60
2023/02/26 03:04:08;;;;;;;;;13.00;11.67;22.70;33.10;;;;;;110101;1254;54158;-60
2023/02/26 03:06:34;;;;;;;;;13.00;11.00;22.70;33.10;;;;;;112138;1254;49293;-62
2023/02/26 03:09:03;;;;;;;;;11.50;10.00;22.70;33.20;;;;;;112305;1249;48923;-61
2023/02/26 03:11:30;;;;;;;;;13.00;10.50;22.90;33.10;;;;;;112313;1253;44640;-62
2023/02/26 03:13:56;;;;;;;;;13.00;12.00;23.00;32.80;;;;;;110495;1250;55226;-61
2023/02/26 03:16:25;;;;;;;;;14.67;11.67;23.20;32.60;;;;;;110169;1253;54103;-60
2023/02/26 03:19:00;;;;;;;;;10.00;9.00;23.20;32.40;;;;;;110072;1249;48999;-60
2023/02/26 03:21:41;;;;;;;;;11.00;9.33;23.10;32.50;;;;;;110117;1253;49566;-60
2023/02/26 03:24:17;;;;;;;;;12.00;10.50;23.00;32.60;;;;;;110218;1252;45534;-62
2023/02/26 03:26:53;;;;;;;;;13.00;11.00;23.00;32.70;;;;;;110357;1253;54977;-61
2023/02/26 03:29:45;;;;;;;;;13.67;11.67;22.90;32.90;;;;;;109982;1249;54472;-61
2023/02/26 03:32:20;;;;;;;;;12.00;11.00;22.80;33.00;;;;;;110334;1249;49721;-61
2023/02/26 03:34:52;;;;;;;;;13.00;12.00;22.70;32.80;;;;;;110279;1248;49771;-61
2023/02/26 03:37:26;;;;;;;;;16.00;13.00;22.70;32.80;;;;;;110215;1256;45595;-60
2023/02/26 03:39:55;;;;;;;;;13.00;12.00;22.60;32.80;;;;;;110170;1249;55029;-60
2023/02/26 03:42:27;;;;;;;;;13.50;10.00;22.60;33.10;;;;;;110183;1253;54770;-61
2023/02/26 03:45:15;;;;;;;;;12.00;10.00;22.50;32.90;;;;;;110263;1249;48927;-60
2023/02/26 03:47:45;;;;;;;;;12.00;11.00;22.50;33.20;;;;;;109942;1252;49026;-60
2023/02/26 03:50:16;;;;;;;;;12.00;9.00;22.40;33.10;;;;;;110127;1253;45263;-61
2023/02/26 03:52:46;;;;;;;;;13.00;11.50;22.40;33.10;;;;;;110249;1249;54561;-61
2023/02/26 03:55:17;;;;;;;;;13.00;11.00;22.40;33.20;;;;;;110204;1253;53403;-61
2023/02/26 03:57:43;;;;;;;;;11.00;9.50;22.40;33.00;;;;;;110104;1250;49748;-61
2023/02/26 04:00:11;;;;;;;;;11.50;10.00;22.30;33.00;;;;;;110221;1251;50367;-60
2023/02/26 04:02:59;;;;;;;;;14.00;12.00;22.30;33.10;;;;;;110115;1251;44704;-61
2023/02/26 04:05:29;;;;;;;;;11.00;10.00;22.30;33.20;;;;;;110137;1250;54852;-60
2023/02/26 04:07:56;;;;;;;;;12.00;9.00;22.20;33.20;;;;;;110443;1249;54037;-61
2023/02/26 04:10:32;;;;;;;;;13.00;11.00;22.20;33.40;;;;;;110306;1249;50707;-60
2023/02/26 04:13:00;;;;;;;;;12.00;10.00;22.20;33.20;;;;;;110246;1251;49082;-61
2023/02/26 04:15:26;;;;;;;;;10.33;9.00;22.30;33.30;;;;;;110149;1249;44594;-60
2023/02/26 04:17:52;;;;;;;;;12.00;10.00;22.40;33.50;;;;;;110221;1249;54770;-63
2023/02/26 04:20:19;;;;;;;;;10.00;9.00;22.50;33.90;;;;;;110366;1249;54445;-61
2023/02/26 04:22:45;;;;;;;;;9.00;8.00;22.60;33.60;;;;;;110350;1250;49724;-61
2023/02/26 04:25:11;;;;;;;;;11.33;9.00;22.60;33.30;;;;;;110343;1249;48741;-61
2023/02/26 04:27:37;;;;;;;;;10.00;9.00;22.80;33.30;;;;;;110192;1253;45662;-61
2023/02/26 04:30:04;;;;;;;;;11.00;9.00;22.90;33.40;;;;;;110333;1249;54861;-61
2023/02/26 04:32:31;;;;;;;;;13.33;12.00;23.00;33.50;;;;;;110297;1254;53900;-61
2023/02/26 04:34:57;;;;;;;;;12.00;10.00;23.10;33.40;;;;;;110350;1249;49957;-61
2023/02/26 04:37:23;;;;;;;;;10.00;8.00;23.20;33.30;;;;;;110388;1249;49059;-60
2023/02/26 04:39:50;;;;;;;;;10.00;8.50;23.30;33.30;;;;;;110396;1249;45436;-61
2023/02/26 04:42:16;;;;;;;;;10.67;9.00;23.40;33.30;;;;;;110289;1254;55204;-60
2023/02/26 04:44:42;;;;;;;;;10.33;9.00;23.60;33.40;;;;;;110171;1249;54569;-61
2023/02/26 04:47:08;;;;;;;;;12.00;9.00;23.70;33.40;;;;;;110180;1249;49771;-61
2023/02/26 04:49:35;;;;;;;;;11.00;9.67;23.80;33.30;;;;;;110308;1249;50719;-62
2023/02/26 04:52:01;;;;;;;;;10.00;9.00;24.00;33.40;;;;;;110174;1251;45530;-62
2023/02/26 04:54:28;;;;;;;;;11.00;9.50;24.10;33.40;;;;;;110166;1254;53997;-61
2023/02/26 04:56:54;;;;;;;;;12.00;8.00;24.20;33.30;;;;;;110303;1250;53688;-61
2023/02/26 04:59:20;;;;;;;;;10.33;9.00;24.40;33.40;;;;;;110120;1249;49293;-61
2023/02/26 05:01:46;;;;;;;;;10.00;9.00;24.50;33.40;;;;;;110178;1253;49505;-61
2023/02/26 05:04:12;;;;;;;;;9.33;8.67;24.60;33.60;;;;;;110152;1253;45065;-61
2023/02/26 05:06:39;;;;;;;;;10.00;9.00;24.70;33.50;;;;;;110143;1249;54148;-62
2023/02/26 05:09:05;;;;;;;;;10.00;9.00;24.80;33.30;;;;;;110153;1253;54688;-60
2023/02/26 05:11:31;;;;;;;;;9.25;8.00;24.90;33.50;;;;;;110227;1249;50186;-68
2023/02/26 05:13:58;;;;;;;;;10.00;9.00;25.10;33.30;;;;;;110226;1253;49357;-61
2023/02/26 05:16:24;;;;;;;;;10.00;8.00;25.20;33.30;;;;;;110144;1249;45204;-65
2023/02/26 05:18:50;;;;;;;;;10.00;8.00;25.30;33.30;;;;;;110208;1254;54826;-66
2023/02/26 05:21:16;;;;;;;;;9.67;8.00;25.40;33.40;;;;;;110324;1249;54742;-67
2023/02/26 05:23:43;;;;;;;;;10.00;8.50;25.50;33.40;;;;;;110574;1253;50941;-65
2023/02/26 05:26:09;;;;;;;;;8.00;7.00;25.60;33.30;;;;;;110352;1253;49452;-65
2023/02/26 05:28:36;;;;;;;;;9.00;8.00;25.70;33.20;;;;;;110201;1249;44752;-63
2023/02/26 05:31:03;;;;;;;;;10.00;9.00;25.80;33.10;;;;;;110156;1249;54453;-63
2023/02/26 05:33:29;;;;;;;;;9.00;8.00;25.90;33.10;;;;;;110200;1249;53021;-62
2023/02/26 05:35:56;;;;;;;;;9.00;8.00;26.00;33.30;;;;;;110163;1248;49074;-62
2023/02/26 05:38:22;;;;;;;;;10.50;7.50;26.10;33.00;;;;;;110148;1249;49149;-63
2023/02/26 05:40:49;;;;;;;;;9.75;9.00;26.20;33.00;;;;;;109993;1249;45517;-64
2023/02/26 05:43:15;;;;;;;;;10.00;9.00;26.30;33.10;;;;;;110258;1249;54596;-64
2023/02/26 05:45:41;;;;;;;;;10.00;9.00;26.30;32.90;;;;;;110144;1249;53728;-63
2023/02/26 05:48:09;;;;;;;;;10.00;8.00;26.40;32.80;;;;;;110235;1253;49067;-64
2023/02/26 05:50:36;;;;;;;;;12.00;9.00;26.50;32.80;;;;;;110176;1249;49870;-64
2023/02/26 05:53:02;;;;;;;;;9.00;8.00;26.50;32.70;;;;;;110244;1249;45161;-64
2023/02/26 05:55:28;;;;;;;;;10.00;9.00;26.50;32.70;;;;;;110206;1250;56234;-59
2023/02/26 05:57:55;;;;;;;;;10.00;9.00;26.60;32.70;;;;;;110291;1249;54128;-59
2023/02/26 06:00:21;;;;;;;;;10.25;8.75;26.60;32.80;;;;;;110147;1253;49141;-58
2023/02/26 06:02:47;;;;;;;;;9.00;8.00;26.50;32.50;;;;;;110070;1249;50147;-59
2023/02/26 06:05:14;;;;;;;;;11.00;9.00;26.60;32.50;;;;;;110213;1253;45064;-59
2023/02/26 06:07:40;;;;;;;;;9.33;8.33;26.60;32.40;;;;;;110201;1253;54841;-58
2023/02/26 06:10:07;;;;;;;;;8.00;7.00;26.60;32.40;;;;;;110254;1250;53402;-59
2023/02/26 06:12:34;;;;;;;;;8.00;7.00;26.60;32.40;;;;;;109966;1249;49525;-59
2023/02/26 06:15:01;;;;;;;;;11.33;8.67;26.50;32.50;;;;;;110142;1251;49549;-60
2023/02/26 06:17:27;;;;;;;;;9.00;8.00;26.60;32.30;;;;;;110120;1249;45512;-57
2023/02/26 06:19:53;;;;;;;;;10.00;7.00;26.50;32.20;;;;;;110212;1249;54883;-60
2023/02/26 06:22:19;;;;;;;;;10.00;9.00;26.50;32.20;;;;;;110288;1249;54934;-59
2023/02/26 06:24:45;;;;;;;;;10.00;9.00;26.50;32.20;;;;;;110172;1250;49555;-60
2023/02/26 06:27:12;;;;;;;;;9.00;8.00;26.50;32.20;;;;;;110113;1253;49964;-60
2023/02/26 06:29:38;;;;;;;;;9.00;8.00;26.40;32.10;;;;;;110111;1253;44989;-60
2023/02/26 06:32:05;;;;;;;;;11.00;8.00;26.40;32.10;;;;;;110172;1249;54991;-61
2023/02/26 06:34:32;;;;;;;;;10.00;9.00;26.30;32.10;;;;;;110142;1249;54120;-61
2023/02/26 06:36:58;;;;;;;;;8.50;7.50;26.30;32.30;;;;;;110248;1250;50601;-61
2023/02/26 06:39:25;;;;;;;;;10.00;8.00;26.30;32.10;;;;;;110292;1251;48530;-62
2023/02/26 06:41:51;;;;;;;;;11.50;9.50;26.20;32.00;;;;;;110305;1250;44961;-61
2023/02/26 06:44:17;;;;;;;;;10.50;9.50;26.20;32.00;;;;;;110310;1253;54579;-59
2023/02/26 06:46:44;;;;;;;;;8.00;7.00;26.10;31.90;;;;;;110332;1250;53783;-59
2023/02/26 06:49:10;;;;;;;;;9.00;8.00;26.10;32.00;;;;;;110190;1249;49954;-62
2023/02/26 06:51:36;;;;;;;;;10.33;7.67;26.00;31.90;;;;;;110353;1250;48775;-61
2023/02/26 06:54:04;;;;;;;;;9.00;8.00;25.90;31.90;;;;;;110099;1250;44369;-62
2023/02/26 06:56:30;;;;;;;;;9.00;8.00;25.90;31.90;;;;;;110178;1250;55012;-61
2023/02/26 06:58:56;;;;;;;;;9.00;8.00;25.90;32.10;;;;;;110109;1253;53784;-61
2023/02/26 07:01:23;;;;;;;;;10.25;7.50;25.80;31.80;;;;;;110213;1249;50238;-61
2023/02/26 07:03:50;;;;;;;;;10.00;9.00;25.80;31.90;;;;;;110271;1253;48592;-62
2023/02/26 07:06:16;;;;;;;;;11.00;10.00;25.70;32.00;;;;;;110019;1253;138933;-61
2023/02/26 07:08:43;;;;;;;;;8.00;7.00;25.60;31.70;;;;;;110162;1254;54041;-61
2023/02/26 07:11:09;;;;;;;;;8.00;7.00;25.60;31.80;;;;;;110152;1254;54510;-62
2023/02/26 07:13:36;;;;;;;;;9.67;8.67;25.50;31.80;;;;;;109994;1251;48848;-62
2023/02/26 07:16:06;;;;;;;;;10.00;8.50;25.50;31.80;;;;;;110177;1250;48811;-62
2023/02/26 07:18:33;;;;;;;;;10.00;9.00;25.40;31.80;;;;;;110058;1251;44980;-63
2023/02/26 07:21:00;;;;;;;;;9.00;7.00;25.40;31.70;;;;;;110095;1249;55732;-64
2023/02/26 07:23:26;;;;;;;;;9.00;8.00;25.30;31.70;;;;;;110112;1252;54333;-62
2023/02/26 07:25:52;;;;;;;;;8.50;7.00;25.20;31.70;;;;;;110273;1254;48668;-62
2023/02/26 07:28:19;;;;;;;;;8.00;7.00;25.20;31.80;;;;;;110100;1253;49931;-62
2023/02/26 07:30:46;;;;;;;;;9.00;8.00;25.10;31.50;;;;;;110121;1253;44767;-63
2023/02/26 07:33:12;;;;;;;;;9.00;7.00;25.10;31.60;;;;;;110154;1254;54689;-62
2023/02/26 07:35:39;;;;;;;;;10.00;9.00;25.00;31.80;;;;;;110222;1253;54034;-61
2023/02/26 07:38:05;;;;;;;;;8.00;7.50;25.00;31.60;;;;;;110176;1249;49192;-63
2023/02/26 07:40:32;;;;;;;;;9.00;8.00;24.90;31.80;;;;;;110275;1253;49168;-62
2023/02/26 07:42:58;;;;;;;;;10.00;9.00;24.90;31.60;;;;;;110216;1249;44379;-62
2023/02/26 07:45:25;;;;;;;;;9.33;8.33;24.80;31.70;;;;;;110189;1253;55045;-64
2023/02/26 07:47:51;;;;;;;;;9.67;8.00;24.80;31.50;;;;;;110275;1249;54762;-66
2023/02/26 07:50:19;;;;;;;;;8.00;7.00;24.70;31.40;;;;;;110174;1249;50171;-66
2023/02/26 07:52:46;;;;;;;;;10.00;8.00;24.70;31.40;;;;;;110172;1253;48509;-63
2023/02/26 07:55:13;;;;;;;;;12.00;9.00;24.70;31.50;;;;;;110272;1253;45147;-63
2023/02/26 07:57:39;;;;;;;;;10.00;9.00;24.60;31.80;;;;;;110173;1249;54503;-63
2023/02/26 08:00:06;;;;;;;;;8.00;7.00;24.60;31.40;;;;;;110220;1251;54758;-66
2023/02/26 08:02:35;;;;;;;;;9.00;7.50;24.50;31.50;;;;;;110358;1252;50380;-67
2023/02/26 08:05:01;;;;;;;;;10.00;7.00;24.40;31.60;;;;;;110405;1250;48528;-68
2023/02/26 08:07:27;;;;;;;;;10.00;9.00;24.40;31.60;;;;;;110394;1249;44665;-68
2023/02/26 08:09:53;;;;;;;;;9.50;7.50;24.40;31.50;;;;;;110353;1253;54815;-68
2023/02/26 08:12:20;;;;;;;;;12.00;8.00;24.40;31.60;;;;;;110481;1251;54207;-68
2023/02/26 08:14:46;;;;;;;;;9.67;8.33;24.30;31.50;;;;;;110301;1249;49252;-69
2023/02/26 08:17:13;;;;;;;;;10.33;8.00;24.30;31.50;;;;;;110225;1251;49707;-69
2023/02/26 08:19:39;;;;;;;;;11.50;10.00;24.30;31.50;;;;;;110254;1253;45473;-68
2023/02/26 08:22:05;;;;;;;;;9.50;8.00;24.20;31.40;;;;;;110563;1253;55587;-65
2023/02/26 08:24:32;;;;;;;;;12.00;9.00;24.20;31.60;;;;;;110238;1253;54638;-65
2023/02/26 08:26:58;;;;;;;;;14.00;10.00;24.20;32.00;;;;;;110204;1253;48537;-67
2023/02/26 08:29:24;;;;;;;;;11.75;10.25;24.10;32.90;;;;;;110374;1249;49352;-66
2023/02/26 08:31:51;;;;;;;;;18.00;13.33;24.10;34.50;;;;;;110632;1253;45306;-63
2023/02/26 08:34:18;;;;;;;;;20.00;13.00;24.00;35.40;;;;;;110298;1253;54131;-65
2023/02/26 08:36:44;;;;;;;;;15.00;13.00;24.00;35.90;;;;;;110112;1253;54157;-64
2023/02/26 08:39:10;;;;;;;;;24.50;18.00;24.00;36.90;;;;;;110204;1249;49932;-62
2023/02/26 08:41:37;;;;;;;;;16.00;13.00;23.90;37.40;;;;;;110150;1249;49186;-65
2023/02/26 08:44:03;;;;;;;;;20.67;16.00;23.90;38.20;;;;;;110135;1253;44734;-65
2023/02/26 08:46:30;;;;;;;;;17.67;13.33;23.80;39.20;;;;;;110216;1249;55598;-65
2023/02/26 08:48:56;;;;;;;;;16.67;13.33;23.80;38.60;;;;;;110275;1253;54058;-64
2023/02/26 08:51:22;;;;;;;;;21.00;18.00;23.80;38.70;;;;;;110437;1253;49667;-64
2023/02/26 08:53:49;;;;;;;;;13.00;12.00;23.70;39.00;;;;;;109570;1253;147398;-62
2023/02/26 08:56:16;;;;;;;;;15.00;14.00;23.70;39.40;;;;;;109742;1260;44608;-63
2023/02/26 08:58:45;;;;;;;;;22.00;15.00;23.70;39.40;;;;;;109854;1260;54325;-62
2023/02/26 09:01:11;;;;;;;;;23.00;14.00;23.60;39.70;;;;;;109711;1259;54943;-59
2023/02/26 09:03:37;;;;;;;;;15.00;12.00;23.60;39.30;;;;;;109699;1260;49485;-61
2023/02/26 09:06:04;;;;;;;;;19.50;16.00;23.70;39.30;;;;;;109722;1259;49069;-61
2023/02/26 09:08:34;;;;;;;;;18.00;14.00;23.70;38.90;;;;;;109708;1259;45208;-61
2023/02/26 09:11:01;;;;;;;;;17.33;14.00;23.70;38.70;;;;;;109583;1261;54718;-61
2023/02/26 09:13:28;;;;;;;;;16.00;12.00;23.80;38.90;;;;;;109642;1257;54457;-60
2023/02/26 09:15:55;;;;;;;;;17.00;13.00;23.80;38.50;;;;;;109683;1259;49909;-62
2023/02/26 09:18:21;;;;;;;;;14.00;12.00;23.90;38.50;;;;;;109986;1259;49935;-61
2023/02/26 09:20:47;;;;;;;;;16.00;13.00;23.90;38.40;;;;;;109804;1258;45039;-61
2023/02/26 09:23:13;;;;;;;;;16.50;12.00;24.00;38.40;;;;;;109747;1254;55012;-62
2023/02/26 09:25:39;;;;;;;;;19.00;12.00;24.00;38.30;;;;;;109778;1260;54929;-60
2023/02/26 09:28:06;;;;;;;;;17.00;14.00;24.10;38.20;;;;;;109816;1259;49581;-60
2023/02/26 09:30:32;;;;;;;;;19.50;14.50;24.20;38.10;;;;;;109707;1260;49367;-63
2023/02/26 09:33:01;;;;;;;;;15.67;14.00;24.30;38.20;;;;;;109823;1260;44546;-63
2023/02/26 09:35:27;;;;;;;;;21.00;15.00;24.30;38.10;;;;;;109864;1257;54935;-64
2023/02/26 09:37:53;;;;;;;;;14.00;12.00;24.40;38.00;;;;;;109692;1260;55188;-66
2023/02/26 09:40:47;;;;;;;;;16.00;13.00;24.50;38.00;;;;;;109765;1257;51875;-62
2023/02/26 09:43:42;;;;;;;;;16.00;14.50;24.60;38.10;;;;;;109591;1257;49923;-62
2023/02/26 09:46:11;;;;;;;;;;;24.70;38.30;;;;;;109609;1256;44461;-61
2023/02/26 09:48:37;;;;;;;;;15.50;11.50;24.90;38.00;;;;;;109706;1255;54886;-61
2023/02/26 09:51:05;;;;;;;;;19.00;13.00;25.00;37.90;;;;;;109589;1257;54053;-62
2023/02/26 09:53:37;;;;;;;;;18.00;13.00;25.10;37.90;;;;;;110029;1257;50042;-61
2023/02/26 09:56:13;;;;;;;;;12.00;9.33;25.20;37.80;;;;;;109562;1259;49587;-61
2023/02/26 09:58:42;;;;;;;;;14.00;11.50;25.30;38.10;;;;;;109767;1257;44999;-61
2023/02/26 10:01:30;;;;;;;;;13.00;10.00;25.40;37.50;;;;;;109712;1256;54227;-61
2023/02/26 10:04:33;;;;;;;;;15.00;13.67;25.50;37.60;;;;;;109600;1260;53574;-61
2023/02/26 10:07:11;;;;;;;;;12.00;10.67;25.60;37.30;;;;;;109620;1259;49738;-61
2023/02/26 10:10:00;;;;;;;;;11.00;10.00;25.70;37.20;;;;;;109572;1260;49889;-62
2023/02/26 10:12:29;;;;;;;;;13.00;11.00;25.80;37.10;;;;;;109825;1255;44638;-61
2023/02/26 10:15:06;;;;;;;;;22.00;12.00;25.90;37.10;;;;;;109765;1257;54841;-62
2023/02/26 10:17:41;;;;;;;;;13.00;11.00;26.00;37.00;;;;;;109640;1257;54290;-61
2023/02/26 10:20:23;;;;;;;;;16.00;13.50;26.20;37.00;;;;;;109591;1255;49553;-61
2023/02/26 10:23:00;;;;;;;;;12.00;11.00;26.30;36.90;;;;;;109679;1259;49102;-62
2023/02/26 10:25:33;;;;;;;;;14.00;12.00;26.40;36.90;;;;;;109572;1257;45246;-61
2023/02/26 10:28:32;;;;;;;;;18.00;11.50;26.50;36.70;;;;;;109627;1260;54973;-62
2023/02/26 10:31:05;;;;;;;;;11.33;10.00;26.50;36.50;;;;;;109333;1257;53478;-61
2023/02/26 10:33:46;;;;;;;;;12.67;11.33;26.60;36.80;;;;;;109676;1260;50566;-62
2023/02/26 10:36:17;;;;;;;;;13.00;10.50;26.70;36.40;;;;;;109540;1257;49248;-61
2023/02/26 10:38:47;;;;;;;;;20.00;14.00;26.80;36.30;;;;;;109645;1259;44716;-62
2023/02/26 10:41:19;;;;;;;;;13.00;11.00;26.80;36.20;;;;;;109600;1258;54611;-61
2023/02/26 10:43:55;;;;;;;;;15.50;11.00;26.80;36.20;;;;;;109591;1260;54530;-62
2023/02/26 10:46:41;;;;;;;;;13.00;12.00;26.80;36.10;;;;;;109619;1259;49455;-62
2023/02/26 10:49:13;;;;;;;;;15.00;12.00;26.80;36.20;;;;;;109679;1260;49767;-62
2023/02/26 10:51:39;;;;;;;;;17.00;13.00;26.90;36.00;;;;;;109696;1260;44760;-62
2023/02/26 10:54:24;;;;;;;;;14.00;13.00;26.90;35.90;;;;;;109623;1259;55144;-61
2023/02/26 10:56:50;;;;;;;;;15.00;13.00;26.90;35.30;;;;;;109576;1257;54666;-61
2023/02/26 10:59:16;;;;;;;;;14.67;11.00;26.80;35.60;;;;;;109611;1255;50955;-61
2023/02/26 11:01:43;;;;;;;;;12.00;11.00;26.80;35.60;;;;;;109708;1255;49027;-61
2023/02/26 11:04:18;;;;;;;;;14.00;11.00;26.80;35.60;;;;;;109648;1260;44272;-61
2023/02/26 11:06:54;;;;;;;;;16.00;13.00;26.80;35.50;;;;;;109566;1257;55209;-62
2023/02/26 11:09:23;;;;;;;;;14.50;13.50;26.70;36.00;;;;;;109532;1258;53269;-61
2023/02/26 11:11:55;;;;;;;;;12.00;11.00;26.70;35.40;;;;;;109630;1256;49943;-61
2023/02/26 11:14:22;;;;;;;;;13.00;11.00;26.70;35.30;;;;;;109589;1255;49680;-61
2023/02/26 11:16:52;;;;;;;;;13.00;12.00;26.60;35.20;;;;;;109610;1255;44798;-61
2023/02/26 11:19:19;;;;;;;;;;;26.60;35.30;;;;;;109589;1260;55612;-61
2023/02/26 11:21:46;;;;;;;;;14.50;13.00;26.60;35.20;;;;;;109674;1259;54450;-61
2023/02/26 11:24:23;;;;;;;;;15.00;12.00;26.50;35.10;;;;;;109638;1255;49982;-62
2023/02/26 11:26:50;;;;;;;;;18.00;12.00;26.50;35.30;;;;;;109591;1260;49440;-62
2023/02/26 11:29:19;;;;;;;;;13.33;12.00;26.50;35.20;;;;;;109677;1255;45045;-63
2023/02/26 11:31:56;;;;;;;;;13.00;12.00;26.40;35.00;;;;;;109947;1256;55029;-62
2023/02/26 11:34:24;;;;;;;;;16.00;12.00;26.40;34.60;;;;;;109640;1257;54768;-62
2023/02/26 11:36:53;;;;;;;;;14.25;11.75;26.40;34.90;;;;;;109608;1259;49983;-62
2023/02/26 11:39:28;;;;;;;;;12.25;11.00;26.30;34.40;;;;;;109575;1257;49980;-62
2023/02/26 11:41:58;;;;;;;;;17.00;12.00;26.30;35.10;;;;;;109727;1255;45781;-60
2023/02/26 11:44:35;;;;;;;;;13.00;11.00;26.20;34.80;;;;;;109582;1257;54524;-61
2023/02/26 11:47:14;;;;;;;;;12.00;11.00;26.20;35.10;;;;;;109669;1259;54367;-61
2023/02/26 11:49:50;;;;;;;;;13.00;12.00;26.10;34.80;;;;;;109612;1260;49653;-60
2023/02/26 11:52:22;;;;;;;;;14.00;12.00;26.10;34.80;;;;;;109591;1259;49430;-61
2023/02/26 11:54:50;;;;;;;;;17.00;13.00;26.00;34.80;;;;;;109383;1260;44959;-61
2023/02/26 11:57:24;;;;;;;;;14.00;13.00;26.00;34.80;;;;;;109582;1255;54929;-61
2023/02/26 11:59:52;;;;;;;;;12.00;11.00;25.90;34.90;;;;;;109673;1260;53199;-61
2023/02/26 12:02:23;;;;;;;;;14.00;11.00;25.90;34.90;;;;;;109860;1254;50600;-61
2023/02/26 12:04:53;;;;;;;;;13.00;12.00;25.80;34.70;;;;;;109968;1255;48907;-60
2023/02/26 12:07:20;;;;;;;;;13.00;12.00;25.80;35.00;;;;;;109793;1258;44685;-61
2023/02/26 12:09:46;;;;;;;;;14.00;13.00;25.80;34.70;;;;;;109769;1255;54488;-59
2023/02/26 12:12:24;;;;;;;;;14.50;13.50;25.70;34.60;;;;;;109686;1257;53846;-60
2023/02/26 12:15:10;;;;;;;;;12.00;11.00;25.60;35.10;;;;;;109693;1260;49692;-60
2023/02/26 12:18:14;;;;;;;;;12.67;11.67;25.60;35.10;;;;;;109717;1255;48986;-60
2023/02/26 12:21:03;;;;;;;;;16.00;13.00;25.50;34.40;;;;;;109741;1255;44734;-61
2023/02/26 12:23:34;;;;;;;;;;;25.50;34.50;;;;;;109788;1255;55682;-61
2023/02/26 12:26:09;;;;;;;;;16.00;13.50;25.40;34.20;;;;;;109660;1257;53873;-62
2023/02/26 12:28:59;;;;;;;;;15.00;12.00;25.30;34.10;;;;;;109644;1260;48965;-61
2023/02/26 12:31:35;;;;;;;;;14.50;10.50;25.30;34.30;;;;;;109321;1255;48977;-63
2023/02/26 12:34:29;;;;;;;;;16.00;12.00;25.20;34.60;;;;;;109642;1255;44707;-63
2023/02/26 12:37:04;;;;;;;;;13.00;12.00;25.20;34.00;;;;;;109842;1257;54902;-62
2023/02/26 12:40:11;;;;;;;;;16.00;13.00;25.10;33.90;;;;;;109749;1259;53827;-60
2023/02/26 12:42:52;;;;;;;;;15.00;13.00;25.10;34.00;;;;;;109614;1261;49194;-62